Terminal Aerodrome Forecast
Issued by NWS

Home | Current Version | Previous Version | Text Only | Print | Product List | Glossary On
Versions: 1 2 3 4 5 6 7 8 9 10 11 12
000
FTUS46 KMTR 250521
TAFMRY
TAF
KMRY 250521Z 2506/2606 10007KT P6SM BKN150
     FM250900 09003KT P6SM FEW150 SCT200
     FM251900 27004KT P6SM FEW250
     FM260000 20005KT P6SM FEW250
     FM260400 09004KT P6SM BKN250=

USA.gov is the U.S. government's official web portal to all federal, state and local government web resources and services.